Keene, New Hampshire
Current Conditions -  °F | °C
As of 3:15 PM on Saturday 25 Oct 2014 (Local Time) from KEEN Reporting Station
Few Clouds Few Clouds  
Wind Chill: 63°   Ceiling: Unl
Heat Index: 63°   Visibility: 10mi
Dew Point: 37°   Wind: 7mph
Humidity: 39%   Direction: 300°WNW
Pressure: 29.61"   Gusts: NA
Location:  42.93°N, 72.28°W
Report Text: KEEN 251915Z AUTO 30006KT 10SM FEW055 17/03 A2961 RMK AO1
Loading
Personal Weather Stations






























Interactive Weather Map
Tropical Storm Tracking
New forecast layout! Learn more

10-Day Weather Forecast

Advertisements
Track Severe Weather on mobile